createdAt,value
2018-10-05T00:01:02.408Z,76.60
2018-10-05T00:03:31.341Z,77.10
2018-10-05T00:06:00.271Z,77.60
2018-10-05T00:08:29.045Z,78.60
2018-10-05T00:10:57.761Z,78.30
2018-10-05T00:13:26.488Z,77.30
2018-10-05T00:15:55.140Z,77.00
2018-10-05T00:18:23.764Z,77.00
2018-10-05T00:20:52.501Z,76.40
2018-10-05T00:23:21.108Z,76.50
2018-10-05T00:25:49.976Z,76.60
2018-10-05T00:28:18.620Z,77.00
2018-10-05T00:30:47.320Z,77.60
2018-10-05T00:33:15.996Z,77.30
2018-10-05T00:35:44.777Z,78.20
2018-10-05T00:38:13.426Z,78.20
2018-10-05T00:40:42.133Z,78.70
2018-10-05T00:43:10.820Z,78.70
2018-10-05T00:45:39.528Z,77.90
2018-10-05T00:48:08.157Z,78.10
2018-10-05T00:50:36.930Z,77.80
2018-10-05T00:53:05.721Z,78.20
2018-10-05T00:55:34.448Z,78.10
2018-10-05T00:58:03.285Z,78.40
2018-10-05T01:00:31.897Z,78.40
2018-10-05T01:03:00.528Z,77.80
2018-10-05T01:05:29.295Z,77.50
2018-10-05T01:07:58.270Z,77.20
2018-10-05T01:10:26.878Z,77.60
2018-10-05T01:12:55.549Z,77.80
2018-10-05T01:15:24.313Z,78.20
2018-10-05T01:17:53.130Z,78.10
2018-10-05T01:20:21.940Z,78.60
2018-10-05T01:22:51.058Z,78.40
2018-10-05T01:25:19.920Z,78.00
2018-10-05T01:27:48.592Z,77.80
2018-10-05T01:30:17.268Z,77.70
2018-10-05T01:32:46.053Z,77.70
2018-10-05T01:35:15.208Z,78.00
2018-10-05T01:37:43.947Z,78.00
2018-10-05T01:40:12.583Z,77.80
2018-10-05T01:42:41.279Z,77.90
2018-10-05T01:45:10.016Z,78.20
2018-10-05T01:47:38.699Z,78.50
2018-10-05T01:50:07.299Z,78.70
2018-10-05T01:52:35.934Z,79.20
2018-10-05T01:55:04.677Z,79.90
2018-10-05T01:57:33.432Z,80.00
2018-10-05T02:00:02.092Z,79.40
2018-10-05T02:02:30.847Z,79.30
2018-10-05T02:04:59.457Z,78.70
2018-10-05T02:07:28.176Z,78.40
2018-10-05T02:09:56.825Z,78.50
2018-10-05T02:12:25.726Z,78.10
2018-10-05T02:14:54.412Z,78.30
2018-10-05T02:17:23.228Z,78.90
2018-10-05T02:19:52.101Z,79.00
2018-10-05T02:22:20.876Z,79.00
2018-10-05T02:24:49.548Z,79.00
2018-10-05T02:27:18.358Z,78.80
2018-10-05T02:29:47.017Z,79.00
2018-10-05T02:32:15.729Z,79.40
2018-10-05T02:34:44.333Z,78.90
2018-10-05T02:37:13.073Z,78.90
2018-10-05T02:39:41.707Z,78.50
2018-10-05T02:42:10.358Z,78.80
2018-10-05T02:44:39.037Z,79.40
2018-10-05T02:47:07.641Z,79.20
2018-10-05T02:49:36.478Z,79.40
2018-10-05T02:52:05.157Z,78.90
2018-10-05T02:54:33.965Z,79.40
2018-10-05T02:57:02.785Z,78.80
2018-10-05T02:59:31.589Z,78.90
2018-10-05T03:02:22.511Z,78.90
2018-10-05T03:04:51.148Z,79.50
2018-10-05T03:07:19.804Z,79.80
2018-10-05T03:09:48.453Z,79.50
2018-10-05T03:12:17.173Z,79.30
2018-10-05T03:14:46.044Z,79.30
2018-10-05T03:17:15.144Z,78.70
2018-10-05T03:19:43.931Z,78.70
2018-10-05T03:22:12.552Z,79.60
2018-10-05T03:24:41.553Z,79.90
2018-10-05T03:27:10.258Z,79.30
2018-10-05T03:29:38.921Z,79.10
2018-10-05T03:32:08.086Z,78.90
2018-10-05T03:34:36.777Z,79.30
2018-10-05T03:37:05.480Z,79.90
2018-10-05T03:39:34.170Z,79.60
2018-10-05T03:42:02.888Z,79.60
2018-10-05T03:44:31.697Z,79.40
2018-10-05T03:47:00.561Z,79.20
2018-10-05T03:49:29.209Z,79.00
2018-10-05T03:51:58.045Z,79.70
2018-10-05T03:54:27.095Z,80.20
2018-10-05T03:56:56.008Z,80.30
2018-10-05T03:59:24.930Z,80.40
2018-10-05T04:01:53.666Z,80.10
2018-10-05T04:04:22.417Z,79.40
2018-10-05T04:06:51.128Z,79.00
2018-10-05T04:09:19.993Z,79.30
2018-10-05T04:11:48.877Z,79.50
2018-10-05T04:14:17.548Z,79.80
2018-10-05T04:16:46.396Z,79.60
2018-10-05T04:19:14.993Z,79.70
2018-10-05T04:21:43.666Z,80.40
2018-10-05T04:24:12.367Z,79.90
2018-10-05T04:26:41.096Z,79.30
2018-10-05T04:29:09.945Z,79.30
2018-10-05T04:31:38.560Z,79.30
2018-10-05T04:34:07.245Z,78.70
2018-10-05T04:36:36.021Z,79.20
2018-10-05T04:39:06.010Z,80.20
2018-10-05T04:41:34.969Z,80.70
2018-10-05T04:44:03.817Z,80.60
2018-10-05T04:46:32.596Z,80.30
2018-10-05T04:49:01.429Z,79.90
2018-10-05T04:51:30.285Z,80.00
2018-10-05T04:53:58.978Z,80.00
2018-10-05T04:56:27.754Z,79.60
2018-10-05T04:58:56.423Z,79.70
2018-10-05T05:01:25.136Z,79.90
2018-10-05T05:03:53.800Z,79.50
2018-10-05T05:06:22.566Z,79.70
2018-10-05T05:08:51.277Z,80.50
2018-10-05T05:11:19.946Z,80.10
2018-10-05T05:13:48.765Z,80.30
2018-10-05T05:16:17.376Z,80.70
2018-10-05T05:18:46.094Z,80.50
2018-10-05T05:21:14.881Z,80.30
2018-10-05T05:23:43.500Z,79.60
2018-10-05T05:26:12.236Z,79.10
2018-10-05T05:28:40.901Z,80.00
2018-10-05T05:31:09.509Z,81.00
2018-10-05T05:33:38.319Z,81.40
2018-10-05T05:36:08.804Z,80.30
2018-10-05T05:38:37.567Z,80.40
2018-10-05T05:41:06.763Z,79.90
2018-10-05T05:43:35.642Z,79.70
2018-10-05T05:46:04.346Z,80.10
2018-10-05T05:48:33.006Z,81.20
2018-10-05T05:51:01.683Z,82.30
2018-10-05T05:53:30.297Z,82.80
2018-10-05T05:55:59.032Z,82.70
2018-10-05T05:58:27.848Z,81.80
2018-10-05T06:00:56.650Z,82.10
2018-10-05T06:03:25.431Z,82.40
2018-10-05T06:05:54.189Z,82.10
2018-10-05T06:08:22.910Z,82.60
2018-10-05T06:10:51.672Z,82.70
2018-10-05T06:13:20.505Z,82.60
2018-10-05T06:15:49.346Z,82.90
2018-10-05T06:18:17.960Z,83.90
2018-10-05T06:20:46.628Z,84.40
2018-10-05T06:23:15.348Z,84.50
2018-10-05T06:25:44.295Z,84.50
2018-10-05T06:28:13.224Z,84.80
2018-10-05T06:30:42.030Z,84.90
2018-10-05T06:33:10.716Z,86.20
2018-10-05T06:35:39.502Z,86.30
2018-10-05T06:38:08.235Z,86.40
2018-10-05T06:40:36.953Z,86.40
2018-10-05T06:43:06.187Z,86.90
2018-10-05T06:45:35.244Z,87.20
2018-10-05T06:48:04.409Z,87.40
2018-10-05T06:50:33.159Z,87.20
2018-10-05T06:53:01.816Z,88.10
2018-10-05T06:55:30.559Z,87.50
2018-10-05T06:57:59.337Z,87.20
2018-10-05T07:00:28.036Z,87.20
2018-10-05T07:02:56.693Z,87.20
2018-10-05T07:05:25.516Z,87.50
2018-10-05T07:07:54.171Z,87.20
2018-10-05T07:10:22.997Z,86.80
2018-10-05T07:12:51.637Z,86.40
2018-10-05T07:15:20.305Z,85.20
2018-10-05T07:17:48.921Z,84.10
2018-10-05T07:20:17.657Z,83.90
2018-10-05T07:22:46.582Z,83.00
2018-10-05T07:25:15.317Z,81.30
2018-10-05T07:27:43.957Z,80.40
2018-10-05T07:30:12.629Z,80.30
2018-10-05T07:32:41.538Z,79.80
2018-10-05T07:35:10.317Z,79.30
2018-10-05T07:37:39.289Z,77.60
2018-10-05T07:40:08.044Z,74.40
2018-10-05T07:42:37.361Z,72.60
2018-10-05T07:45:06.107Z,72.00
2018-10-05T07:47:34.719Z,70.80
2018-10-05T07:50:03.720Z,58.90
2018-10-05T07:52:32.633Z,60.60
2018-10-05T07:55:01.391Z,58.20
2018-10-05T07:57:30.390Z,52.90
2018-10-05T07:59:58.981Z,56.30
2018-10-05T08:02:28.013Z,56.30
2018-10-05T08:04:57.144Z,52.40
2018-10-05T08:07:25.825Z,53.70
2018-10-05T08:09:54.506Z,50.00
2018-10-05T08:12:23.394Z,46.00
2018-10-05T08:14:52.110Z,47.70
2018-10-05T08:17:20.960Z,47.60
2018-10-05T08:19:49.726Z,46.00
2018-10-05T08:22:18.372Z,42.40
2018-10-05T08:24:47.271Z,43.20
2018-10-05T08:27:15.991Z,42.00
2018-10-05T08:29:44.668Z,41.30
2018-10-05T08:32:13.453Z,41.20
2018-10-05T08:34:42.178Z,41.80
2018-10-05T08:37:10.877Z,41.10
2018-10-05T08:39:39.709Z,41.10
2018-10-05T08:42:08.386Z,41.60
2018-10-05T08:44:37.165Z,40.90
2018-10-05T08:47:06.036Z,41.10
2018-10-05T08:49:34.928Z,41.60
2018-10-05T08:52:04.049Z,42.60
2018-10-05T08:54:32.840Z,41.00
2018-10-05T08:57:01.512Z,41.50
2018-10-05T08:59:30.264Z,40.90
2018-10-05T09:01:59.156Z,41.70
2018-10-05T09:04:28.022Z,42.70
2018-10-05T09:06:56.807Z,42.10
2018-10-05T09:09:25.534Z,43.10
2018-10-05T09:11:54.725Z,33.90
2018-10-05T09:14:23.341Z,33.40
2018-10-05T09:16:52.221Z,33.50
2018-10-05T09:19:20.810Z,33.00
2018-10-05T09:21:49.521Z,32.90
2018-10-05T09:24:18.407Z,32.70
2018-10-05T09:26:47.084Z,33.20
2018-10-05T09:29:15.846Z,33.60
2018-10-05T09:31:44.720Z,33.70
2018-10-05T09:34:13.508Z,33.50
2018-10-05T09:36:42.348Z,33.10
2018-10-05T09:39:11.073Z,34.50
2018-10-05T09:41:39.915Z,34.60
2018-10-05T09:44:08.857Z,33.60
2018-10-05T09:46:37.701Z,33.80
2018-10-05T09:49:06.420Z,32.90
2018-10-05T09:51:35.057Z,34.10
2018-10-05T09:54:04.068Z,35.50
2018-10-05T11:42:59.663Z,48.30
2018-10-05T11:45:28.394Z,36.10
2018-10-05T11:47:57.207Z,36.50
2018-10-05T11:50:26.263Z,36.40
2018-10-05T11:52:55.137Z,35.40
2018-10-05T11:55:24.032Z,35.60
2018-10-05T11:57:52.949Z,35.50
2018-10-05T12:00:21.719Z,35.40
2018-10-05T12:02:50.310Z,35.60
2018-10-05T12:05:19.248Z,35.20
2018-10-05T12:07:48.041Z,35.40
2018-10-05T12:10:16.726Z,35.30
2018-10-05T12:12:45.401Z,37.00
2018-10-05T12:15:14.096Z,36.30
2018-10-05T12:17:43.797Z,36.60
2018-10-05T12:20:12.586Z,36.00
2018-10-05T12:22:41.318Z,36.10
2018-10-05T12:25:10.337Z,36.30
2018-10-05T12:27:39.191Z,35.70
2018-10-05T12:30:08.183Z,36.40
2018-10-05T12:32:37.039Z,36.40
2018-10-05T12:35:05.808Z,36.30
2018-10-05T12:37:34.544Z,35.60
2018-10-05T12:40:03.237Z,35.60
2018-10-05T12:42:32.282Z,36.00
2018-10-05T12:45:01.144Z,35.40
2018-10-05T12:47:29.836Z,35.60
2018-10-05T12:49:58.600Z,35.40
2018-10-05T12:52:27.352Z,34.80
2018-10-05T12:54:56.209Z,35.10
2018-10-05T12:57:24.941Z,35.60
2018-10-05T12:59:53.665Z,35.80
2018-10-05T13:02:22.370Z,36.40
2018-10-05T13:04:51.448Z,36.10
2018-10-05T13:07:20.164Z,36.20
2018-10-05T13:09:49.022Z,35.90
2018-10-05T13:12:17.845Z,36.90
2018-10-05T13:14:46.833Z,36.80
2018-10-05T13:17:15.594Z,36.90
2018-10-05T13:19:44.641Z,36.20
2018-10-05T13:22:13.421Z,35.80
2018-10-05T13:24:42.181Z,35.60
2018-10-05T13:27:10.987Z,36.20
2018-10-05T13:29:39.946Z,35.00
2018-10-05T13:32:08.657Z,35.10
2018-10-05T13:34:37.585Z,35.90
2018-10-05T13:37:06.341Z,36.40
2018-10-05T13:39:35.094Z,36.40
2018-10-05T13:42:04.081Z,36.00
2018-10-05T13:44:32.672Z,35.50
2018-10-05T13:47:01.552Z,35.50
2018-10-05T13:49:30.297Z,35.90
2018-10-05T13:51:59.046Z,35.90
2018-10-05T13:54:28.186Z,35.90
2018-10-05T13:56:56.882Z,36.20
2018-10-05T13:59:25.600Z,35.00
2018-10-05T14:01:54.513Z,34.90
2018-10-05T14:04:23.374Z,34.50
2018-10-05T14:06:52.249Z,35.00
2018-10-05T14:09:20.942Z,35.40
2018-10-05T14:11:49.844Z,35.10
2018-10-05T14:14:18.652Z,34.60
2018-10-05T14:16:47.282Z,34.60
2018-10-05T14:19:16.187Z,34.70
2018-10-05T14:21:44.886Z,34.60
2018-10-05T14:24:13.606Z,34.80
2018-10-05T14:26:42.677Z,34.90
2018-10-05T14:29:11.558Z,34.80
2018-10-05T14:31:40.361Z,34.40
2018-10-05T14:34:09.328Z,33.80
2018-10-05T14:36:38.092Z,33.90
2018-10-05T14:39:08.474Z,33.60
2018-10-05T14:41:37.255Z,33.70
2018-10-05T14:44:06.041Z,34.00
2018-10-05T14:46:34.987Z,33.50
2018-10-05T14:49:03.705Z,33.30
2018-10-05T14:51:32.590Z,33.80
2018-10-05T14:54:01.541Z,33.90
2018-10-05T14:56:30.393Z,33.80
2018-10-05T14:58:59.072Z,33.90
2018-10-05T15:01:27.857Z,33.50
2018-10-05T15:03:56.832Z,33.70
2018-10-05T15:06:25.933Z,33.50
2018-10-05T15:08:54.605Z,33.90
2018-10-05T15:11:23.698Z,33.90
2018-10-05T15:13:52.689Z,33.80
2018-10-05T15:16:21.602Z,33.40
2018-10-05T15:18:50.544Z,33.70
2018-10-05T15:21:19.830Z,33.80
2018-10-05T15:23:48.708Z,34.10
2018-10-05T15:26:17.557Z,33.80
2018-10-05T15:28:46.666Z,33.70
2018-10-05T15:31:15.457Z,33.80
2018-10-05T15:33:44.309Z,33.70
2018-10-05T15:36:13.119Z,33.60
2018-10-05T15:38:41.880Z,33.70
2018-10-05T15:41:10.503Z,33.70
2018-10-05T15:43:39.373Z,33.80
2018-10-05T15:46:09.913Z,33.60
2018-10-05T15:48:39.036Z,33.70
2018-10-05T15:51:07.750Z,34.00
2018-10-05T15:53:36.742Z,34.00
2018-10-05T15:56:05.545Z,34.50
2018-10-05T15:58:34.563Z,34.80
2018-10-05T16:01:03.529Z,35.00
2018-10-05T16:03:32.353Z,35.00
2018-10-05T16:06:01.266Z,35.70
2018-10-05T16:08:30.197Z,36.00
2018-10-05T16:10:58.901Z,36.40
2018-10-05T16:13:27.979Z,37.00
2018-10-05T16:15:56.724Z,37.30
2018-10-05T16:18:25.503Z,37.60
2018-10-05T16:20:54.238Z,37.70
2018-10-05T16:23:23.164Z,38.50
2018-10-05T16:25:51.956Z,38.30
2018-10-05T16:28:20.791Z,39.20
2018-10-05T16:30:49.593Z,39.50
2018-10-05T16:33:18.449Z,39.40
2018-10-05T16:35:47.173Z,40.10
2018-10-05T16:38:16.234Z,40.40
2018-10-05T16:40:45.033Z,40.60
2018-10-05T16:43:13.819Z,41.20
2018-10-05T16:45:42.672Z,41.70
2018-10-05T16:48:11.309Z,42.00
2018-10-05T16:50:40.202Z,42.30
2018-10-05T16:53:08.900Z,42.90
2018-10-05T16:55:37.697Z,43.60
2018-10-05T16:58:06.749Z,44.20
2018-10-05T17:00:35.399Z,45.40
2018-10-05T17:03:04.310Z,46.90
2018-10-05T17:05:33.125Z,46.30
2018-10-05T17:08:01.887Z,46.70
2018-10-05T17:10:30.750Z,47.20
2018-10-05T17:12:59.581Z,46.20
2018-10-05T17:15:28.459Z,45.00
2018-10-05T17:17:57.481Z,45.90
2018-10-05T17:20:26.476Z,45.80
2018-10-05T17:22:55.224Z,46.80
2018-10-05T17:25:24.308Z,47.90
2018-10-05T17:27:53.481Z,48.40
2018-10-05T17:30:22.190Z,50.70
2018-10-05T17:32:51.147Z,51.20
2018-10-05T17:35:19.978Z,50.30
2018-10-05T17:37:49.028Z,54.10
2018-10-05T17:40:17.721Z,56.30
2018-10-05T17:42:46.577Z,55.10
2018-10-05T17:45:15.449Z,55.30
2018-10-05T17:47:44.348Z,54.00
2018-10-05T17:50:13.088Z,53.70
2018-10-05T17:52:41.864Z,53.90
2018-10-05T17:55:10.572Z,53.90
2018-10-05T17:57:39.242Z,54.50
2018-10-05T18:00:08.187Z,54.50
2018-10-05T18:02:36.912Z,56.80
2018-10-05T18:05:06.078Z,54.60
2018-10-05T18:07:34.913Z,55.90
2018-10-05T18:10:03.948Z,56.30
2018-10-05T18:12:32.633Z,57.90
2018-10-05T18:15:01.426Z,60.30
2018-10-05T18:17:30.499Z,60.20
2018-10-05T18:19:59.356Z,60.40
2018-10-05T18:22:28.133Z,60.80
2018-10-05T18:24:56.821Z,61.40
2018-10-05T18:27:25.502Z,61.20
2018-10-05T18:29:54.436Z,61.60
2018-10-05T18:32:23.169Z,60.50
2018-10-05T18:34:51.972Z,60.60
2018-10-05T18:37:20.671Z,60.50
2018-10-05T18:39:49.354Z,61.00
2018-10-05T18:42:18.268Z,61.40
2018-10-05T18:44:47.069Z,62.10
2018-10-05T18:47:15.813Z,62.00
2018-10-05T18:49:44.696Z,63.00
2018-10-05T18:52:13.557Z,63.30
2018-10-05T18:54:42.424Z,62.90
2018-10-05T18:57:20.226Z,62.20
2018-10-05T18:59:49.037Z,61.80
2018-10-05T19:02:18.618Z,62.00
2018-10-05T19:07:27.434Z,61.90
2018-10-05T19:09:56.489Z,63.70
2018-10-05T19:12:25.462Z,64.40
2018-10-05T19:14:54.152Z,63.20
2018-10-05T19:17:22.907Z,63.00
2018-10-05T19:19:51.705Z,63.00
2018-10-05T19:22:20.480Z,63.30
2018-10-05T19:24:49.096Z,63.70
2018-10-05T19:27:17.885Z,63.60
2018-10-05T19:29:46.582Z,64.10
2018-10-05T19:32:15.328Z,64.20
2018-10-05T19:34:44.332Z,64.40
2018-10-05T19:37:13.009Z,64.60
2018-10-05T19:39:41.761Z,64.40
2018-10-05T19:42:10.596Z,65.50
2018-10-05T19:44:39.300Z,66.00
2018-10-05T19:47:08.387Z,65.10
2018-10-05T19:49:37.188Z,65.40
2018-10-05T19:52:05.967Z,65.90
2018-10-05T19:54:34.721Z,65.80
2018-10-05T19:57:03.486Z,66.20
2018-10-05T19:59:32.313Z,66.20
2018-10-05T20:02:01.054Z,65.60
2018-10-05T20:04:29.692Z,66.30
2018-10-05T20:06:58.624Z,65.40
2018-10-05T20:09:27.465Z,65.80
2018-10-05T20:11:56.260Z,66.40
2018-10-05T20:14:25.242Z,65.90
2018-10-05T20:16:54.007Z,66.00
2018-10-05T20:19:22.856Z,65.60
2018-10-05T20:21:51.624Z,66.50
2018-10-05T20:24:20.518Z,67.30
2018-10-05T20:26:49.202Z,66.90
2018-10-05T20:29:18.087Z,66.10
2018-10-05T20:31:46.899Z,65.70
2018-10-05T20:34:15.961Z,65.00
2018-10-05T20:36:44.861Z,65.90
2018-10-05T20:44:10.659Z,69.90
2018-10-05T20:46:39.561Z,67.80
2018-10-05T20:49:08.381Z,68.00
2018-10-05T20:51:37.140Z,67.90
2018-10-05T20:54:05.841Z,67.50
2018-10-05T20:56:34.509Z,67.80
2018-10-05T20:59:03.326Z,68.00
2018-10-05T21:01:32.128Z,68.00
2018-10-05T23:00:14.049Z,73.40
2018-10-05T23:02:42.957Z,73.60
2018-10-05T23:05:11.711Z,73.50
2018-10-05T23:07:40.884Z,73.20
2018-10-05T23:10:09.836Z,73.10
2018-10-05T23:12:38.516Z,73.00
2018-10-05T23:15:07.847Z,73.40
2018-10-05T23:17:36.753Z,73.50
2018-10-05T23:20:05.553Z,74.60
2018-10-05T23:22:34.382Z,74.90
2018-10-05T23:25:03.072Z,74.80
2018-10-05T23:27:31.745Z,74.30
2018-10-05T23:30:00.553Z,74.50
2018-10-05T23:32:29.208Z,74.30
2018-10-05T23:34:57.927Z,73.80
2018-10-05T23:37:26.564Z,73.90
2018-10-05T23:39:55.537Z,73.60
2018-10-05T23:42:24.552Z,74.00
2018-10-05T23:44:53.297Z,73.70
2018-10-05T23:47:21.903Z,73.80
2018-10-05T23:49:50.721Z,74.10
2018-10-05T23:52:53.382Z,74.60
2018-10-05T23:55:22.117Z,74.60
2018-10-05T23:57:50.966Z,82.90
